Time;durP1;ratioP1;P1;durP2;ratioP2;P2;SDS_P1;SDS_P2;PMS_P1;PMS_P2;Temp;Humidity;BMP_temperature;BMP_pressure;BME280_temperature;BME280_humidity;BME280_pressure;Samples;Min_cycle;Max_cycle;Signal;HPM_P1;HPM_P2
2021/06/24 00:00:47;;;;;;;13.32;11.93;;;17.40;99.90;;;;;;5051069;28;20021;-75
2021/06/24 00:03:13;;;;;;;13.38;11.32;;;17.30;99.90;;;;;;5045479;28;20032;-74
2021/06/24 00:05:40;;;;;;;12.70;11.40;;;17.40;99.90;;;;;;5050036;28;20029;-75
2021/06/24 00:08:07;;;;;;;14.35;11.18;;;17.40;99.90;;;;;;5045372;28;20037;-73
2021/06/24 00:10:34;;;;;;;12.07;10.98;;;17.40;99.90;;;;;;5048174;28;20025;-74
2021/06/24 00:13:00;;;;;;;11.85;10.70;;;17.50;99.90;;;;;;5043589;28;20115;-74
2021/06/24 00:15:26;;;;;;;11.82;10.73;;;17.40;99.90;;;;;;5040030;28;20120;-75
2021/06/24 00:17:51;;;;;;;13.63;10.77;;;17.50;99.90;;;;;;5045004;28;20490;-75
2021/06/24 00:20:17;;;;;;;13.50;11.45;;;17.60;99.90;;;;;;5046708;28;20176;-75
2021/06/24 00:22:43;;;;;;;11.52;10.32;;;17.60;99.90;;;;;;5043350;28;20021;-76
2021/06/24 00:25:09;;;;;;;11.90;10.65;;;17.50;99.90;;;;;;5041027;28;20036;-76
2021/06/24 00:27:35;;;;;;;11.93;10.57;;;17.70;99.90;;;;;;5043498;28;20056;-75
2021/06/24 00:30:01;;;;;;;11.32;10.23;;;17.70;99.90;;;;;;5033073;28;20116;-75
2021/06/24 00:32:28;;;;;;;12.07;9.88;;;17.70;99.90;;;;;;5044392;28;20036;-76
2021/06/24 00:34:59;;;;;;;12.40;9.68;;;17.80;99.90;;;;;;5054402;28;20407;-76
2021/06/24 00:37:25;;;;;;;12.07;10.88;;;17.90;99.90;;;;;;5045352;28;20079;-76
2021/06/24 00:39:50;;;;;;;12.95;9.93;;;17.80;99.90;;;;;;5047180;28;20029;-75
2021/06/24 00:42:16;;;;;;;12.07;10.95;;;17.80;99.90;;;;;;5044685;28;20025;-75
2021/06/24 00:44:42;;;;;;;12.18;10.88;;;17.80;99.90;;;;;;5054177;28;20479;-76
2021/06/24 00:47:07;;;;;;;13.50;11.40;;;17.70;99.90;;;;;;5043719;28;20036;-76
2021/06/24 00:49:33;;;;;;;11.18;9.57;;;17.70;99.90;;;;;;5046275;28;20504;-75
2021/06/24 00:51:59;;;;;;;11.57;10.43;;;17.70;99.90;;;;;;5045529;28;20028;-75
2021/06/24 00:54:24;;;;;;;12.30;9.93;;;17.60;99.90;;;;;;5037362;28;20047;-75
2021/06/24 00:56:50;;;;;;;12.48;11.18;;;17.70;99.90;;;;;;5043842;28;20060;-75
2021/06/24 00:59:15;;;;;;;10.80;9.23;;;17.80;99.90;;;;;;5040305;28;20025;-75
2021/06/24 01:01:41;;;;;;;10.88;9.18;;;17.70;99.90;;;;;;5044534;28;20033;-76
2021/06/24 01:04:06;;;;;;;13.65;9.85;;;17.70;99.90;;;;;;5055017;28;20028;-76
2021/06/24 01:06:33;;;;;;;11.82;9.70;;;17.70;99.90;;;;;;5053776;28;20044;-75
2021/06/24 01:08:58;;;;;;;11.13;9.73;;;17.70;99.90;;;;;;5063222;28;20009;-77
2021/06/24 01:11:24;;;;;;;12.23;10.35;;;17.50;99.90;;;;;;5051940;28;20043;-76
2021/06/24 01:13:50;;;;;;;10.05;9.02;;;17.50;99.90;;;;;;5051000;28;20544;-74
2021/06/24 01:16:16;;;;;;;10.10;9.18;;;17.50;99.90;;;;;;5055740;28;20056;-75
2021/06/24 01:18:42;;;;;;;11.40;8.60;;;17.50;99.90;;;;;;5049056;28;20035;-76
2021/06/24 01:21:08;;;;;;;9.13;8.18;;;17.50;99.90;;;;;;5064994;28;20024;-75
2021/06/24 01:23:40;;;;;;;13.07;8.35;;;17.60;99.90;;;;;;5060751;28;20029;-76
2021/06/24 01:26:06;;;;;;;9.30;8.40;;;17.60;99.90;;;;;;5054368;28;20412;-75
2021/06/24 01:28:32;;;;;;;9.40;8.50;;;17.60;99.90;;;;;;5060790;28;20491;-75
2021/06/24 01:30:57;;;;;;;10.25;8.30;;;17.50;99.90;;;;;;5049043;28;20041;-75
2021/06/24 01:33:25;;;;;;;10.02;8.80;;;17.60;99.90;;;;;;5059243;28;20017;-74
2021/06/24 01:35:57;;;;;;;9.27;8.38;;;17.60;99.90;;;;;;5052971;28;20028;-75
2021/06/24 01:38:22;;;;;;;16.58;9.20;;;17.50;99.90;;;;;;5055355;28;20053;-75
2021/06/24 01:40:48;;;;;;;9.73;8.80;;;17.40;99.90;;;;;;5053177;28;20149;-75
2021/06/24 01:43:13;;;;;;;9.07;8.20;;;17.40;99.90;;;;;;5052998;28;20040;-75
2021/06/24 01:45:50;;;;;;;9.80;8.80;;;17.40;99.90;;;;;;5067975;28;20029;-75
2021/06/24 01:48:16;;;;;;;10.05;8.85;;;17.50;99.90;;;;;;5043941;28;20454;-75
2021/06/24 01:50:43;;;;;;;10.82;8.93;;;17.40;99.90;;;;;;5066657;28;20479;-74
2021/06/24 01:53:08;;;;;;;9.38;8.48;;;17.30;99.90;;;;;;5062530;28;20039;-74
2021/06/24 01:55:35;;;;;;;10.00;8.95;;;17.20;99.90;;;;;;5052997;28;20029;-75
2021/06/24 01:58:03;;;;;;;12.48;9.50;;;17.20;99.90;;;;;;5065540;28;20044;-75
2021/06/24 02:00:29;;;;;;;11.30;8.75;;;17.20;99.90;;;;;;5051796;28;20036;-76
2021/06/24 02:02:56;;;;;;;10.10;9.10;;;17.20;99.90;;;;;;5056627;28;20093;-75
2021/06/24 02:05:21;;;;;;;12.77;9.00;;;17.10;99.90;;;;;;5050639;28;20501;-74
2021/06/24 02:07:47;;;;;;;9.95;8.95;;;17.10;99.90;;;;;;5059921;28;20032;-74
2021/06/24 02:10:13;;;;;;;9.77;8.77;;;17.10;99.90;;;;;;5050475;28;20087;-75
2021/06/24 02:12:40;;;;;;;10.35;9.25;;;17.20;99.90;;;;;;5056216;28;20029;-75
2021/06/24 02:15:08;;;;;;;9.82;8.82;;;17.20;99.90;;;;;;5043690;28;20394;-75
2021/06/24 02:17:35;;;;;;;11.35;9.30;;;17.10;99.90;;;;;;5055435;28;20120;-75
2021/06/24 02:20:01;;;;;;;10.15;9.07;;;17.10;99.90;;;;;;5056649;28;20500;-75
2021/06/24 02:22:26;;;;;;;11.43;9.55;;;17.10;99.90;;;;;;5052601;28;20476;-75
2021/06/24 02:24:52;;;;;;;10.73;9.63;;;17.10;99.90;;;;;;5054108;28;20013;-75
2021/06/24 02:27:18;;;;;;;11.10;9.88;;;17.10;99.90;;;;;;5053075;28;20034;-75
2021/06/24 02:29:45;;;;;;;11.52;10.05;;;17.10;99.90;;;;;;5050842;28;20064;-75
2021/06/24 02:32:11;;;;;;;11.63;9.85;;;17.10;99.90;;;;;;5066236;28;20020;-75
2021/06/24 02:34:37;;;;;;;12.48;10.23;;;17.10;99.90;;;;;;5060141;28;20502;-74
2021/06/24 02:37:03;;;;;;;11.80;10.50;;;17.20;99.90;;;;;;5057881;28;20144;-75
2021/06/24 02:39:28;;;;;;;13.10;10.27;;;17.20;99.90;;;;;;5047288;28;20510;-75
2021/06/24 02:41:54;;;;;;;12.68;9.88;;;17.20;99.90;;;;;;5061879;28;20494;-75
2021/06/24 02:44:19;;;;;;;11.50;10.30;;;17.40;99.90;;;;;;5068549;28;20024;-75
2021/06/24 02:46:45;;;;;;;15.07;11.80;;;17.40;99.90;;;;;;5056024;28;20368;-75
2021/06/24 02:49:11;;;;;;;14.52;11.57;;;17.50;99.90;;;;;;5058372;28;20391;-75
2021/06/24 02:51:38;;;;;;;12.85;11.45;;;17.50;99.90;;;;;;5060910;28;20017;-75
2021/06/24 02:54:04;;;;;;;13.88;12.48;;;17.40;99.90;;;;;;5062571;28;20536;-75
2021/06/24 02:56:38;;;;;;;16.08;11.70;;;17.40;99.90;;;;;;5052478;28;20032;-75
2021/06/24 02:59:04;;;;;;;14.00;12.15;;;17.40;99.90;;;;;;5042383;28;20029;-75
2021/06/24 03:01:29;;;;;;;13.93;12.07;;;17.40;99.90;;;;;;5059822;28;20025;-75
2021/06/24 03:03:55;;;;;;;15.63;12.52;;;17.40;99.90;;;;;;5062360;28;20017;-75
2021/06/24 03:06:21;;;;;;;14.43;12.48;;;17.40;99.90;;;;;;5047020;28;20030;-75
2021/06/24 03:08:47;;;;;;;16.10;14.35;;;17.30;99.90;;;;;;5034466;28;20474;-75
2021/06/24 03:11:14;;;;;;;16.70;14.25;;;17.30;99.90;;;;;;5061236;28;20029;-75
2021/06/24 03:13:39;;;;;;;17.60;14.80;;;17.30;99.90;;;;;;5039542;28;20018;-75
2021/06/24 03:16:05;;;;;;;15.27;13.68;;;17.30;99.90;;;;;;5045910;28;20042;-75
2021/06/24 03:18:31;;;;;;;17.08;15.20;;;17.30;99.90;;;;;;5041892;28;20028;-75
2021/06/24 03:20:56;;;;;;;19.08;14.95;;;17.30;99.90;;;;;;5054713;28;20024;-75
2021/06/24 03:23:22;;;;;;;16.65;14.90;;;17.30;99.90;;;;;;5058735;28;20585;-75
2021/06/24 03:25:48;;;;;;;17.50;15.00;;;17.20;99.90;;;;;;5059206;28;20021;-75
2021/06/24 03:28:14;;;;;;;15.98;14.27;;;17.20;99.90;;;;;;5064529;28;20053;-74
2021/06/24 03:30:41;;;;;;;17.38;14.45;;;17.20;99.90;;;;;;5067380;28;20087;-74
2021/06/24 03:33:07;;;;;;;17.95;15.70;;;17.20;99.90;;;;;;5069057;28;20029;-75
2021/06/24 03:35:32;;;;;;;17.35;15.52;;;17.30;99.90;;;;;;5057405;28;20029;-75
2021/06/24 03:37:58;;;;;;;17.42;15.60;;;17.40;99.90;;;;;;5059141;28;20025;-75
2021/06/24 03:40:24;;;;;;;19.50;16.48;;;17.50;99.90;;;;;;5057239;28;20030;-76
2021/06/24 03:42:51;;;;;;;20.23;17.52;;;17.40;99.90;;;;;;5056262;28;20028;-76
2021/06/24 03:45:17;;;;;;;20.63;17.30;;;17.30;99.90;;;;;;5073227;28;20020;-75
2021/06/24 03:47:43;;;;;;;17.90;15.98;;;17.20;99.90;;;;;;5055247;28;20020;-76
2021/06/24 03:50:10;;;;;;;18.20;16.27;;;17.20;99.90;;;;;;5070716;28;20020;-76
2021/06/24 03:52:36;;;;;;;19.20;15.93;;;17.30;99.90;;;;;;5066039;28;20443;-75
2021/06/24 03:55:02;;;;;;;20.20;16.13;;;17.40;99.90;;;;;;5066119;28;20021;-75
2021/06/24 03:57:27;;;;;;;19.52;16.13;;;17.30;99.90;;;;;;5067954;28;20032;-76
2021/06/24 03:59:53;;;;;;;17.92;15.20;;;17.20;99.90;;;;;;5060786;28;20078;-75
2021/06/24 04:02:19;;;;;;;20.85;15.10;;;17.30;99.90;;;;;;5064156;28;20021;-75
2021/06/24 04:04:45;;;;;;;17.65;14.98;;;17.30;99.90;;;;;;5059748;28;20028;-74
2021/06/24 04:07:11;;;;;;;17.23;15.38;;;17.30;99.90;;;;;;5062797;28;20033;-75
2021/06/24 04:09:36;;;;;;;16.80;14.48;;;17.40;99.90;;;;;;5059469;28;20026;-75
2021/06/24 04:12:02;;;;;;;16.38;14.63;;;17.30;99.90;;;;;;5055086;28;20029;-75
2021/06/24 04:14:28;;;;;;;17.13;14.52;;;17.20;99.90;;;;;;5056079;28;20032;-75
2021/06/24 04:16:53;;;;;;;18.63;15.43;;;17.30;99.90;;;;;;5057845;28;20493;-74
2021/06/24 04:19:20;;;;;;;18.25;14.75;;;17.30;99.90;;;;;;5066048;28;20028;-75
2021/06/24 04:21:46;;;;;;;17.80;14.65;;;17.30;99.90;;;;;;5070797;28;20367;-74
2021/06/24 04:24:12;;;;;;;16.25;14.27;;;17.30;99.90;;;;;;5047901;28;20084;-75
2021/06/24 04:26:38;;;;;;;20.33;14.68;;;17.40;99.90;;;;;;5052836;28;20025;-75
2021/06/24 04:29:03;;;;;;;18.13;14.00;;;17.40;99.90;;;;;;5047668;28;20022;-74
2021/06/24 04:31:29;;;;;;;18.92;13.77;;;17.40;99.90;;;;;;5051370;28;20025;-74
2021/06/24 04:33:56;;;;;;;16.17;13.82;;;17.50;99.90;;;;;;5047878;28;20029;-74
2021/06/24 04:36:22;;;;;;;15.90;13.93;;;17.50;99.90;;;;;;5050841;28;20452;-74
2021/06/24 04:38:48;;;;;;;17.20;14.02;;;17.50;99.90;;;;;;5042026;28;20104;-74
2021/06/24 04:41:13;;;;;;;14.02;12.63;;;17.50;99.90;;;;;;5040875;28;20029;-75
2021/06/24 04:43:39;;;;;;;14.80;12.38;;;17.60;99.90;;;;;;5062899;28;20020;-74
2021/06/24 04:46:04;;;;;;;15.52;13.85;;;17.60;99.90;;;;;;5057173;28;20036;-75
2021/06/24 04:48:30;;;;;;;16.15;12.43;;;17.70;99.90;;;;;;5042581;28;20033;-75
2021/06/24 04:50:56;;;;;;;15.93;12.35;;;17.70;99.90;;;;;;5038930;28;20088;-75
2021/06/24 04:53:21;;;;;;;15.52;12.07;;;17.80;99.90;;;;;;5042501;28;20032;-75
2021/06/24 04:55:47;;;;;;;15.07;12.00;;;17.90;99.90;;;;;;5040604;28;20033;-75
2021/06/24 04:58:13;;;;;;;13.68;12.13;;;17.90;99.90;;;;;;5046398;28;20040;-75
2021/06/24 05:00:38;;;;;;;16.75;13.05;;;17.90;99.90;;;;;;5048512;28;20041;-75
2021/06/24 05:03:05;;;;;;;15.48;12.25;;;18.00;99.90;;;;;;5045629;28;20031;-75
2021/06/24 05:05:31;;;;;;;15.88;12.30;;;18.00;99.90;;;;;;5047223;28;20096;-75
2021/06/24 05:07:58;;;;;;;13.77;11.43;;;18.00;99.90;;;;;;5032587;28;20125;-74
2021/06/24 05:10:23;;;;;;;13.75;11.52;;;18.00;99.90;;;;;;5032290;28;20079;-75
2021/06/24 05:12:49;;;;;;;15.55;11.63;;;17.90;99.90;;;;;;5032626;28;20025;-75
2021/06/24 05:15:15;;;;;;;13.20;11.70;;;17.90;99.90;;;;;;5047023;28;20052;-75
2021/06/24 05:17:41;;;;;;;14.77;12.73;;;17.90;99.90;;;;;;5033860;28;20438;-76
2021/06/24 05:20:08;;;;;;;15.30;12.80;;;17.90;99.90;;;;;;5045725;28;20079;-76
2021/06/24 05:22:34;;;;;;;18.25;13.32;;;17.90;99.90;;;;;;5042589;28;20025;-76
2021/06/24 05:25:00;;;;;;;16.50;12.45;;;17.90;99.90;;;;;;5051392;28;20039;-76
2021/06/24 05:27:26;;;;;;;16.58;13.48;;;17.90;99.90;;;;;;5041503;28;20108;-76
2021/06/24 05:29:52;;;;;;;22.10;12.77;;;17.90;99.90;;;;;;5038806;28;20036;-77
2021/06/24 05:32:17;;;;;;;18.48;13.15;;;18.00;99.90;;;;;;5044523;28;20087;-76
2021/06/24 05:34:43;;;;;;;15.55;13.68;;;18.00;99.90;;;;;;5047002;28;20069;-76
2021/06/24 05:37:08;;;;;;;15.68;12.40;;;17.90;99.90;;;;;;5042432;28;20025;-75
2021/06/24 05:39:34;;;;;;;15.68;12.93;;;18.10;99.90;;;;;;5050825;28;20386;-75
2021/06/24 05:42:00;;;;;;;17.38;13.30;;;18.20;99.90;;;;;;5042082;28;20037;-75
2021/06/24 05:44:26;;;;;;;17.55;14.00;;;18.40;99.90;;;;;;5038270;28;20029;-75
2021/06/24 05:46:53;;;;;;;16.05;12.82;;;18.50;99.90;;;;;;5044923;28;20032;-75
2021/06/24 05:49:19;;;;;;;17.25;12.23;;;18.40;99.90;;;;;;5046084;28;20405;-77
2021/06/24 05:51:45;;;;;;;17.73;12.63;;;18.50;99.90;;;;;;5040908;28;20158;-74
2021/06/24 05:54:10;;;;;;;17.10;13.25;;;18.50;99.90;;;;;;5049764;28;20029;-74
2021/06/24 05:56:36;;;;;;;15.15;12.30;;;18.50;99.90;;;;;;5044546;28;20086;-74
2021/06/24 05:59:03;;;;;;;15.10;12.43;;;18.60;99.90;;;;;;5047927;28;20025;-75
2021/06/24 06:01:29;;;;;;;14.50;12.25;;;18.60;99.90;;;;;;5044156;28;20056;-75
2021/06/24 06:03:55;;;;;;;14.00;12.60;;;18.60;99.90;;;;;;5045285;28;20441;-75
2021/06/24 06:06:20;;;;;;;15.90;12.45;;;18.70;99.90;;;;;;5041503;28;20025;-75
2021/06/24 06:08:46;;;;;;;13.60;11.98;;;18.70;99.90;;;;;;5039481;28;20083;-75
2021/06/24 06:11:12;;;;;;;15.15;12.73;;;18.50;99.90;;;;;;5044008;28;20026;-75
2021/06/24 06:13:38;;;;;;;15.93;12.88;;;18.50;99.90;;;;;;5044998;28;20487;-74
2021/06/24 06:16:04;;;;;;;14.60;12.98;;;18.50;99.90;;;;;;5039868;28;20039;-75
2021/06/24 06:18:29;;;;;;;17.52;13.32;;;18.40;99.90;;;;;;5038927;28;20546;-75
2021/06/24 06:20:56;;;;;;;14.80;13.30;;;18.40;99.90;;;;;;5042117;28;20554;-75
2021/06/24 06:23:25;;;;;;;16.70;13.63;;;18.30;99.90;;;;;;5045920;28;20025;-75
2021/06/24 06:25:51;;;;;;;16.02;12.93;;;18.30;99.90;;;;;;5042314;28;20498;-75
2021/06/24 06:28:19;;;;;;;16.25;14.30;;;18.20;99.90;;;;;;5039101;28;20103;-75
2021/06/24 06:30:47;;;;;;;18.92;14.38;;;18.20;99.90;;;;;;5041924;28;20033;-75
2021/06/24 06:33:13;;;;;;;19.10;14.75;;;18.20;99.90;;;;;;5045730;28;20021;-75
2021/06/24 06:35:39;;;;;;;20.30;14.95;;;18.30;99.90;;;;;;5042977;28;20040;-75
2021/06/24 06:38:05;;;;;;;19.08;15.10;;;18.40;99.90;;;;;;5038831;28;20398;-74
2021/06/24 06:40:31;;;;;;;19.60;14.77;;;18.40;99.90;;;;;;5041373;28;20036;-76
2021/06/24 06:42:57;;;;;;;17.58;15.73;;;18.50;99.90;;;;;;5048128;28;20030;-74
2021/06/24 06:45:26;;;;;;;19.20;16.10;;;18.50;99.90;;;;;;5057777;28;20032;-74
2021/06/24 06:47:52;;;;;;;18.73;14.35;;;18.40;99.90;;;;;;5057422;28;20017;-74
2021/06/24 06:50:18;;;;;;;16.42;13.75;;;18.50;99.90;;;;;;5057108;28;20036;-74
2021/06/24 06:52:44;;;;;;;17.80;14.30;;;18.70;99.90;;;;;;5051910;28;20017;-74
2021/06/24 06:55:10;;;;;;;15.65;13.40;;;18.80;99.90;;;;;;5058913;28;20096;-74
2021/06/24 06:57:36;;;;;;;16.20;14.02;;;18.80;99.90;;;;;;5055535;28;20832;-74
2021/06/24 07:00:05;;;;;;;16.70;13.57;;;18.90;99.90;;;;;;5054461;28;20108;-75
2021/06/24 07:02:30;;;;;;;18.45;14.38;;;19.00;99.90;;;;;;5037961;28;20033;-74
2021/06/24 07:04:56;;;;;;;15.27;13.25;;;18.80;99.90;;;;;;5040997;28;20024;-74
2021/06/24 07:07:21;;;;;;;17.02;13.50;;;18.60;99.90;;;;;;5045008;28;20102;-75
2021/06/24 07:09:47;;;;;;;15.93;14.38;;;18.60;99.90;;;;;;5040964;28;20029;-74
2021/06/24 07:12:12;;;;;;;16.05;14.02;;;18.60;99.90;;;;;;5037659;28;20030;-74
2021/06/24 07:14:39;;;;;;;15.68;13.25;;;18.30;99.90;;;;;;5042624;28;20044;-75
2021/06/24 07:17:04;;;;;;;16.65;14.20;;;18.30;99.90;;;;;;5053420;28;20056;-75
2021/06/24 07:19:30;;;;;;;19.45;15.38;;;18.40;99.90;;;;;;5042785;28;20056;-74
2021/06/24 07:21:55;;;;;;;18.20;14.85;;;18.30;99.90;;;;;;5035016;28;20021;-75
2021/06/24 07:24:21;;;;;;;16.73;13.93;;;18.40;99.90;;;;;;5044828;28;20025;-74
2021/06/24 07:26:47;;;;;;;16.95;14.38;;;18.30;99.90;;;;;;5031899;28;20033;-76
2021/06/24 07:29:13;;;;;;;16.25;13.82;;;18.10;99.90;;;;;;5032385;28;20017;-75
2021/06/24 07:31:39;;;;;;;17.15;13.60;;;18.10;99.90;;;;;;5031706;28;20048;-75
2021/06/24 07:34:05;;;;;;;16.20;13.75;;;18.20;99.90;;;;;;5041245;28;20390;-75
2021/06/24 07:36:30;;;;;;;20.60;14.82;;;18.30;99.90;;;;;;5052489;28;20051;-74
2021/06/24 07:38:56;;;;;;;16.88;13.82;;;18.30;99.90;;;;;;5052630;28;20028;-75
2021/06/24 07:41:24;;;;;;;16.92;13.77;;;18.40;99.90;;;;;;5050687;28;20498;-74
2021/06/24 07:43:50;;;;;;;15.15;13.63;;;18.40;99.90;;;;;;5041525;28;20025;-75
2021/06/24 07:46:16;;;;;;;16.70;13.25;;;18.20;99.90;;;;;;5049718;28;20026;-75
2021/06/24 07:48:41;;;;;;;14.73;12.43;;;18.30;99.90;;;;;;5042221;28;20036;-74
2021/06/24 07:51:07;;;;;;;16.40;13.73;;;18.20;99.90;;;;;;5047892;28;20053;-74
2021/06/24 07:53:32;;;;;;;16.05;13.13;;;18.20;99.90;;;;;;5040651;28;20048;-75
2021/06/24 07:55:58;;;;;;;14.10;12.63;;;18.20;99.90;;;;;;5052151;28;20450;-74
2021/06/24 07:58:23;;;;;;;18.30;12.48;;;18.40;99.90;;;;;;5051320;28;20025;-75
2021/06/24 08:00:49;;;;;;;14.68;12.80;;;18.30;99.90;;;;;;5035730;28;20029;-75
2021/06/24 08:03:14;;;;;;;16.60;13.18;;;18.20;99.90;;;;;;5032890;28;20026;-75
2021/06/24 08:05:41;;;;;;;16.27;12.90;;;18.30;99.90;;;;;;5048569;28;20021;-74
2021/06/24 08:08:07;;;;;;;15.27;12.15;;;18.40;99.90;;;;;;5041494;28;20521;-74
2021/06/24 08:10:32;;;;;;;16.65;14.13;;;18.40;99.90;;;;;;5045724;28;20101;-75
2021/06/24 08:12:58;;;;;;;14.82;11.73;;;18.40;99.90;;;;;;5034496;28;20035;-74
2021/06/24 08:15:26;;;;;;;17.48;12.95;;;18.50;99.90;;;;;;5052520;28;20074;-75
2021/06/24 08:17:52;;;;;;;14.82;12.52;;;18.60;99.90;;;;;;5046279;28;20025;-75
2021/06/24 08:20:18;;;;;;;14.93;11.65;;;18.60;99.90;;;;;;5036285;28;20021;-74
2021/06/24 08:22:44;;;;;;;18.88;12.18;;;18.40;99.90;;;;;;5034996;28;20030;-74
2021/06/24 08:25:10;;;;;;;16.73;12.60;;;18.50;99.90;;;;;;5051167;28;20021;-75
2021/06/24 08:27:36;;;;;;;15.52;12.85;;;18.50;99.90;;;;;;5056064;28;20025;-74
2021/06/24 08:30:07;;;;;;;14.18;12.68;;;18.70;99.90;;;;;;5037875;28;20036;-74
2021/06/24 08:32:33;;;;;;;12.65;11.13;;;18.90;99.90;;;;;;5046147;28;20044;-75
2021/06/24 08:34:58;;;;;;;14.40;12.52;;;18.90;99.90;;;;;;5052239;28;20475;-75
2021/06/24 08:37:24;;;;;;;13.38;11.82;;;19.00;99.90;;;;;;5033397;28;20120;-75
2021/06/24 08:39:49;;;;;;;16.40;11.95;;;19.20;99.90;;;;;;5046436;28;20380;-75
2021/06/24 08:42:16;;;;;;;18.42;12.77;;;19.40;99.90;;;;;;5043207;28;20040;-75
2021/06/24 08:44:44;;;;;;;15.65;11.45;;;19.50;99.90;;;;;;5054347;28;20147;-75
2021/06/24 08:47:13;;;;;;;14.32;11.52;;;19.70;99.90;;;;;;5054409;28;20067;-75
2021/06/24 08:49:39;;;;;;;14.88;11.75;;;20.00;99.90;;;;;;5039637;28;20037;-75
2021/06/24 08:52:07;;;;;;;13.13;11.75;;;20.00;99.90;;;;;;5043414;28;20029;-75
2021/06/24 08:54:32;;;;;;;13.85;11.07;;;20.20;99.90;;;;;;5038545;28;20086;-75
2021/06/24 08:56:58;;;;;;;12.55;11.15;;;20.30;99.90;;;;;;5054253;28;20025;-75
2021/06/24 08:59:23;;;;;;;13.85;10.65;;;20.60;99.90;;;;;;5040478;28;20033;-75
2021/06/24 09:01:59;;;;;;;13.05;10.45;;;20.50;99.90;;;;;;5054065;28;20028;-75
2021/06/24 09:04:27;;;;;;;12.43;10.38;;;20.50;99.90;;;;;;5048480;28;20032;-75
2021/06/24 09:06:53;;;;;;;12.07;10.55;;;20.80;99.90;;;;;;5034259;28;20431;-75
2021/06/24 09:09:33;;;;;;;13.95;10.63;;;21.00;99.90;;;;;;5032667;28;20080;-75
2021/06/24 09:12:07;;;;;;;12.38;9.80;;;21.20;99.90;;;;;;5032662;28;20079;-75
2021/06/24 09:14:42;;;;;;;11.23;10.00;;;21.30;99.90;;;;;;5043190;28;20017;-75
2021/06/24 09:17:09;;;;;;;11.20;10.07;;;21.40;99.90;;;;;;5036508;28;20053;-75
2021/06/24 09:19:37;;;;;;;11.63;9.65;;;21.30;99.90;;;;;;5044325;28;20056;-75
2021/06/24 09:22:11;;;;;;;12.63;9.88;;;21.20;99.90;;;;;;5049419;28;20028;-75
2021/06/24 09:24:47;;;;;;;10.85;9.73;;;21.30;99.90;;;;;;5043817;28;20025;-75
2021/06/24 09:27:18;;;;;;;12.73;9.98;;;21.50;99.90;;;;;;5033815;28;20056;-75
2021/06/24 09:30:02;;;;;;;11.93;9.13;;;21.50;99.90;;;;;;5047646;28;20036;-75
2021/06/24 09:32:39;;;;;;;10.27;9.20;;;21.50;99.90;;;;;;5040755;28;20029;-75
2021/06/24 09:35:19;;;;;;;10.93;9.25;;;20.90;99.90;;;;;;5047008;28;20056;-74
2021/06/24 09:38:01;;;;;;;10.25;9.20;;;21.00;99.90;;;;;;5046384;28;20661;-75
2021/06/24 09:40:40;;;;;;;10.65;9.23;;;21.00;99.90;;;;;;5044896;28;20030;-75
2021/06/24 09:43:06;;;;;;;13.20;9.65;;;21.00;99.90;;;;;;5050459;28;20020;-75
2021/06/24 09:45:32;;;;;;;11.48;9.15;;;20.90;99.90;;;;;;5053141;28;20478;-75
2021/06/24 09:48:08;;;;;;;11.20;9.10;;;20.60;99.90;;;;;;5049126;28;20025;-75
2021/06/24 09:50:34;;;;;;;9.50;8.50;;;20.70;99.90;;;;;;5033073;28;20030;-75
2021/06/24 09:53:11;;;;;;;11.57;8.95;;;20.90;99.90;;;;;;5052117;28;20502;-75
2021/06/24 09:55:36;;;;;;;10.50;9.40;;;21.00;99.90;;;;;;5039384;28;20036;-75
2021/06/24 09:58:12;;;;;;;9.23;8.27;;;20.70;99.90;;;;;;5033319;28;20029;-75
2021/06/24 10:00:47;;;;;;;;;;;20.70;99.90;;;;;;5033743;28;20026;-74
2021/06/24 10:03:13;;;;;;;9.15;8.25;;;20.70;99.90;;;;;;5042438;28;20005;-75
2021/06/24 10:05:40;;;;;;;10.90;8.68;;;20.60;99.90;;;;;;5051614;28;20482;-75
2021/06/24 10:08:07;;;;;;;9.98;8.95;;;20.30;99.90;;;;;;5034564;28;20088;-75
2021/06/24 10:10:34;;;;;;;9.70;8.77;;;20.20;99.90;;;;;;5048739;28;20423;-75
2021/06/24 10:12:59;;;;;;;10.38;9.18;;;20.10;99.90;;;;;;5051613;28;20025;-75
2021/06/24 10:15:27;;;;;;;9.93;8.93;;;20.00;99.90;;;;;;5049678;28;20083;-75
2021/06/24 10:17:55;;;;;;;10.57;8.50;;;19.80;99.90;;;;;;5041079;28;20028;-75
2021/06/24 10:20:21;;;;;;;11.63;9.73;;;19.80;99.90;;;;;;5061962;28;20029;-75
2021/06/24 10:23:10;;;;;;;11.65;9.20;;;19.70;99.90;;;;;;5063940;28;20021;-75
2021/06/24 10:25:38;;;;;;;11.23;8.40;;;19.50;99.90;;;;;;5052424;28;20436;-75
2021/06/24 10:28:04;;;;;;;9.80;8.75;;;19.50;99.90;;;;;;5063628;28;20058;-72
2021/06/24 10:30:38;;;;;;;8.85;7.95;;;19.60;99.90;;;;;;5049089;28;20457;-75
2021/06/24 10:33:11;;;;;;;8.90;8.00;;;19.70;99.90;;;;;;5063590;28;20032;-75
2021/06/24 10:35:39;;;;;;;8.82;7.93;;;19.70;99.90;;;;;;5059805;28;20017;-74
2021/06/24 10:38:06;;;;;;;9.70;8.63;;;20.10;99.90;;;;;;5061707;28;20035;-75
2021/06/24 10:40:40;;;;;;;10.88;8.32;;;20.40;99.90;;;;;;5053208;28;20036;-75
2021/06/24 10:43:14;;;;;;;8.52;7.65;;;20.50;99.90;;;;;;5059022;28;20025;-75
2021/06/24 10:45:41;;;;;;;8.13;7.43;;;20.40;99.90;;;;;;5066590;28;20062;-75
2021/06/24 10:48:25;;;;;;;8.65;7.85;;;20.50;99.90;;;;;;5055361;28;20021;-75
2021/06/24 10:51:10;;;;;;;9.18;7.95;;;20.70;99.90;;;;;;5053260;28;20506;-75
2021/06/24 10:53:51;;;;;;;8.73;7.93;;;20.90;99.90;;;;;;5052443;28;20080;-75
2021/06/24 10:56:21;;;;;;;9.45;7.13;;;21.10;99.90;;;;;;5058630;28;20035;-75
2021/06/24 10:58:46;;;;;;;7.60;6.90;;;21.20;99.90;;;;;;5066717;28;20495;-75
2021/06/24 11:01:12;;;;;;;9.00;7.10;;;21.30;99.90;;;;;;5054352;28;20029;-75
2021/06/24 11:03:44;;;;;;;10.43;8.40;;;21.50;99.90;;;;;;5063827;28;20069;-75
2021/06/24 11:06:12;;;;;;;8.57;7.78;;;21.60;99.90;;;;;;5054603;28;20052;-75
2021/06/24 11:08:41;;;;;;;9.10;8.20;;;21.70;99.90;;;;;;5064695;28;20094;-73
2021/06/24 11:11:12;;;;;;;10.15;7.80;;;21.70;99.90;;;;;;5059365;28;20032;-75
2021/06/24 11:13:41;;;;;;;9.30;7.78;;;21.50;99.90;;;;;;5052637;28;20040;-73
2021/06/24 11:16:09;;;;;;;12.15;8.68;;;21.70;99.90;;;;;;5060658;28;20033;-75
2021/06/24 11:18:38;;;;;;;8.35;7.57;;;22.00;99.90;;;;;;5053696;28;20063;-73
2021/06/24 11:21:03;;;;;;;10.05;7.55;;;22.20;99.90;;;;;;5042526;28;20029;-74
2021/06/24 11:23:44;;;;;;;10.45;8.60;;;22.60;99.90;;;;;;5061830;28;20021;-74
2021/06/24 11:26:15;;;;;;;10.05;8.48;;;22.40;99.90;;;;;;5052632;28;20025;-75
2021/06/24 11:28:56;;;;;;;10.15;8.32;;;22.50;99.90;;;;;;5041687;28;20043;-74
2021/06/24 11:31:50;;;;;;;9.23;7.88;;;23.30;99.90;;;;;;5062044;28;20029;-75
2021/06/24 11:36:50;;;;;;;9.85;7.75;;;23.80;99.90;;;;;;5044231;28;20103;-74
2021/06/24 11:39:22;;;;;;;8.95;8.02;;;23.40;99.90;;;;;;5055153;28;20032;-74
2021/06/24 11:41:52;;;;;;;10.32;7.95;;;22.60;99.90;;;;;;5040712;28;20058;-74
2021/06/24 11:44:38;;;;;;;10.45;8.27;;;22.60;99.90;;;;;;5059499;28;20023;-74
2021/06/24 11:47:14;;;;;;;10.57;8.13;;;22.50;99.90;;;;;;5054802;28;20119;-74
2021/06/24 12:03:54;;;;;;;8.23;7.43;;;22.50;99.90;;;;;;5055254;28;20023;-74
2021/06/24 12:06:20;;;;;;;8.32;7.60;;;22.80;99.90;;;;;;5070327;28;20032;-74
2021/06/24 12:08:57;;;;;;;8.10;7.30;;;23.20;99.90;;;;;;5062730;28;20020;-74
2021/06/24 12:11:35;;;;;;;8.68;7.85;;;23.60;99.90;;;;;;5069431;28;20119;-74
2021/06/24 12:14:19;;;;;;;9.18;8.07;;;23.20;99.90;;;;;;5063667;28;20115;-74
2021/06/24 12:17:03;;;;;;;10.15;8.30;;;23.00;99.90;;;;;;5054186;28;20024;-74
2021/06/24 12:19:53;;;;;;;10.45;8.93;;;23.10;99.90;;;;;;5068974;28;20031;-74
2021/06/24 12:22:24;;;;;;;9.18;8.15;;;23.30;99.90;;;;;;5051104;28;20025;-74
2021/06/24 12:24:52;;;;;;;10.13;9.10;;;23.70;99.90;;;;;;5054894;28;20017;-74
2021/06/24 12:27:24;;;;;;;10.63;8.38;;;23.90;99.90;;;;;;5058944;28;20032;-75
2021/06/24 12:29:52;;;;;;;9.80;8.18;;;24.40;99.90;;;;;;5056053;28;20017;-75
2021/06/24 12:32:21;;;;;;;10.75;9.32;;;23.90;99.90;;;;;;5062658;28;20483;-74
2021/06/24 12:34:47;;;;;;;11.25;9.20;;;22.80;99.90;;;;;;5048896;28;20035;-74
2021/06/24 12:37:36;;;;;;;10.38;8.35;;;22.70;99.90;;;;;;5058542;28;20032;-74
2021/06/24 12:40:07;;;;;;;10.35;9.23;;;22.50;99.90;;;;;;5066273;28;20040;-75
2021/06/24 12:42:41;;;;;;;10.25;9.13;;;22.20;99.90;;;;;;5053046;28;20032;-74
2021/06/24 12:45:07;;;;;;;12.93;9.18;;;22.20;99.90;;;;;;5061952;28;20028;-74
2021/06/24 12:47:37;;;;;;;10.25;9.13;;;22.20;99.90;;;;;;5064934;28;20476;-74
2021/06/24 12:50:14;;;;;;;9.82;8.80;;;22.20;99.90;;;;;;5062420;28;20025;-74
2021/06/24 12:52:52;;;;;;;9.23;8.32;;;23.20;99.90;;;;;;5064612;28;20492;-76